Latest Coastal Weather Observations for Coles Point

IDS60701

Issued at 2:51 am CDT Sunday 21 December 2014 (issued every 10 minutes, with the page automatically refreshed every 10 minutes)

About coastal observations | Map of coastal stations | Coastal observations for SA | Marine services | Other Formats
Station Details ID: 018191 Name: COLES POINT Lat: -34.37 Lon: 135.37 Height: 28.0 m
Data from the previous 72 hours. | See also: Recent months at Coles Point
Date/Time
CDT
Temp

°C
Wind Pressure Rain
since 9am
mm
Weather Cloud Vis
km
Sea
Height
m
Swell
Dir
 
Speed
knots
Gust
knots
hPa Trend Height
m
Period
s
Dir
21/02:30am 18.5 NE 9 11 1009.6 - 0.0 - - - - - - -
21/02:00am 18.6 NNE 10 12 1010.2 - 0.0 - - - - - - -
21/01:30am 19.1 NE 8 10 1010.8 - 0.0 - - - - - - -
21/01:00am 18.6 NE 9 11 1011.4 - 0.0 - - - - - - -
21/12:30am 18.7 NE 9 10 1012.2 - 0.0 - - - - - - -
21/12:00am 18.6 NE 7 9 1012.6 - 0.0 - - - - - - -
 
Date/Time
CDT
Temp

°C
Wind Pressure Rain
since 9am
mm
Weather Cloud Vis
km
Sea
Height
m
Swell
Dir
 
Speed
knots
Gust
knots
hPa Trend Height
m
Period
s
Dir
20/11:30pm 19.0 NE 10 12 1012.5 - 0.0 - - - - - - -
20/11:00pm 19.6 NE 11 15 1012.2 - 0.0 - - - - - - -
20/10:30pm 19.9 NE 9 13 1012.0 - 0.0 - - - - - - -
20/10:00pm 19.6 ESE 6 7 1011.9 - 0.0 - - - - - - -
20/09:30pm 19.9 ESE 6 8 1012.1 - 0.0 - - - - - - -
20/09:00pm 21.0 ESE 6 7 1012.2 - 0.0 - - - - - - -
20/08:30pm 23.1 ESE 8 11 1012.5 - 0.0 - - - - - - -
20/08:00pm 24.6 ESE 11 14 1012.5 - 0.0 - - - - - - -
20/07:30pm 26.3 SE 10 13 1012.5 - 0.0 - - - - - - -
20/07:00pm 27.2 SE 9 12 1012.3 - 0.0 - - - - - - -
20/06:30pm 27.9 ESE 8 11 1012.3 - 0.0 - - - - - - -
20/06:00pm 28.9 E 7 10 1012.2 - 0.0 - - - - - - -
20/05:30pm 27.8 NNE 4 6 1012.4 - 0.0 - - - - - - -
20/05:00pm 27.2 W 7 9 1012.4 - 0.0 - - - - - - -
20/04:30pm 25.5 WSW 9 11 1012.8 - 0.0 - - - - - - -
20/04:00pm 25.4 SW 11 13 1013.4 - 0.0 - - - - - - -
20/03:30pm 25.8 SW 10 13 1013.7 - 0.0 - - - - - - -
20/03:00pm 24.6 SW 10 13 1014.2 - 0.0 - - - - - - -
20/02:30pm 24.3 SW 10 13 1014.8 - 0.0 - - - - - - -
20/02:00pm 23.4 SW 11 15 1015.5 - 0.0 - - - - - - -
20/01:30pm 23.7 SW 12 15 1015.8 - 0.0 - - - - - - -
20/01:00pm 23.7 SW 10 12 1016.2 - 0.0 - - - - - - -
20/12:30pm 23.2 SW 9 12 1016.6 - 0.0 - - - - - - -
20/12:00pm 22.4 WSW 7 9 1017.1 - 0.0 - - - - - - -
20/11:30am 21.4 SW 7 9 1017.4 - 0.0 - - - - - - -
20/11:00am 20.8 WSW 7 8 1018.0 - 0.0 - - - - - - -
20/10:30am 20.6 SW 7 9 1018.2 - 0.0 - - - - - - -
20/10:00am 20.9 ESE 3 7 1018.6 - 0.0 - - - - - - -
20/09:30am 20.8 E 6 10 1018.6 - 0.0 - - - - - - -
20/09:00am 19.7 NE 7 11 1018.9 - 0.0 - - - - - - -
20/08:30am 19.0 NE 9 12 1018.8 - 0.0 - - - - - - -
20/08:00am 17.1 ENE 7 9 1018.4 - 0.0 - - - - - - -
20/07:30am 16.4 NE 7 9 1018.4 - 0.0 - - - - - - -
20/07:00am 14.9 NE 6 8 1018.4 - 0.0 - - - - - - -
20/06:30am 14.0 ENE 6 7 1018.3 - 0.0 - - - - - - -
20/06:00am 13.9 NE 6 8 1018.2 - 0.0 - - - - - - -
20/05:30am 14.0 NE 7 8 1018.1 - 0.0 - - - - - - -
20/05:00am 13.4 NE 6 7 1018.0 - 0.0 - - - - - - -
20/04:30am 14.1 NE 7 7 1018.2 - 0.0 - - - - - - -
20/04:00am 13.9 NE 6 7 1018.2 - 0.0 - - - - - - -
20/03:30am 13.5 ENE 5 6 1018.0 - 0.0 - - - - - - -
20/03:00am 14.1 ENE 7 10 1018.1 - 0.0 - - - - - - -
20/02:30am 12.6 E 4 7 1018.3 - 0.0 - - - - - - -
20/02:00am 12.1 E 2 3 1018.5 - 0.0 - - - - - - -
20/01:30am 12.6 E 2 3 1019.2 - 0.0 - - - - - - -
20/01:00am 13.3 E 3 5 1019.5 - 0.0 - - - - - - -
20/12:30am 13.3 ESE 3 5 1020.0 - 0.0 - - - - - - -
20/12:00am 13.5 SE 4 5 1020.2 - 0.0 - - - - - - -
 
Date/Time
CDT
Temp

°C
Wind Pressure Rain
since 9am
mm
Weather Cloud Vis
km
Sea
Height
m
Swell
Dir
 
Speed
knots
Gust
knots
hPa Trend Height
m
Period
s
Dir
19/11:30pm 14.0 SE 3 5 1020.5 - 0.0 - - - - - - -
19/11:00pm 14.8 SE 5 7 1020.7 - 0.0 - - - - - - -
19/10:30pm 15.1 SE 7 9 1020.7 - 0.0 - - - - - - -
19/10:00pm 15.5 SE 6 9 1020.7 - 0.0 - - - - - - -
19/09:30pm 16.0 SSE 7 10 1020.6 - 0.0 - - - - - - -
19/09:00pm 16.5 SSE 8 11 1020.6 - 0.0 - - - - - - -
19/08:30pm 17.2 S 9 13 1020.4 - 0.0 - - - - - - -
19/08:00pm 18.0 S 11 15 1020.4 - 0.0 - - - - - - -
19/07:30pm 18.6 S 13 17 1020.3 - 0.0 - - - - - - -
19/07:00pm 19.4 S 13 17 1020.2 - 0.0 - - - - - - -
19/06:30pm 19.4 S 14 18 1020.0 - 0.0 - - - - - - -
19/06:00pm 19.6 SSW 14 18 1020.0 - 0.0 - - - - - - -
19/05:30pm 19.8 SSW 14 18 1020.0 - 0.0 - - - - - - -
19/05:00pm 20.6 SSW 13 17 1020.1 - 0.0 - - - - - - -
19/04:30pm 20.3 SSW 13 18 1020.2 - 0.0 - - - - - - -
19/04:00pm 20.7 SSW 13 16 1020.5 - 0.0 - - - - - - -
19/03:30pm 20.6 SSW 12 17 1020.9 - 0.0 - - - - - - -
19/03:00pm 20.5 SW 12 16 1021.1 - 0.0 - - - - - - -
19/02:30pm 20.2 SW 12 15 1021.3 - 0.0 - - - - - - -
19/02:00pm 19.8 WSW 12 15 1021.6 - 0.0 - - - - - - -
19/01:30pm 20.3 WSW 10 13 1021.6 - 0.0 - - - - - - -
19/01:00pm 19.3 WSW 12 15 1021.8 - 0.0 - - - - - - -
19/12:30pm 19.5 WSW 12 14 1021.8 - 0.0 - - - - - - -
19/12:00pm 19.1 WSW 10 12 1021.9 - 0.0 - - - - - - -
19/11:30am 18.2 WSW 10 12 1022.0 - 0.0 - - - - - - -
19/11:00am 18.6 SW 8 10 1022.0 - 0.0 - - - - - - -
19/10:30am 18.4 SW 7 9 1021.7 - 0.0 - - - - - - -
19/10:00am 18.0 SW 7 8 1021.7 - 0.0 - - - - - - -
19/09:30am 17.1 SW 5 8 1021.7 - 0.0 - - - - - - -
19/09:00am 17.6 S 2 4 1021.5 - 0.0 - - - - - - -
19/08:30am 16.8 ENE 3 4 1021.3 - 0.0 - - - - - - -
19/08:00am 15.1 NE 1 2 1020.9 - 0.0 - - - - - - -
19/07:30am 12.5 ENE 4 6 1020.5 - 0.0 - - - - - - -
19/07:00am 9.6 ENE 5 6 1020.1 - 0.0 - - - - - - -
19/06:30am 9.4 NE 1 3 1019.7 - 0.0 - - - - - - -
19/06:00am 9.0 NE 3 4 1019.4 - 0.0 - - - - - - -
19/05:30am 9.3 NE 4 5 1019.0 - 0.0 - - - - - - -
19/05:00am 10.0 ENE 3 4 1018.9 - 0.0 - - - - - - -
19/04:30am 10.2 E 5 5 1018.7 - 0.0 - - - - - - -
19/04:00am 10.1 E 4 5 1018.8 - 0.0 - - - - - - -
19/03:30am 9.8 ESE 3 3 1018.9 - 0.0 - - - - - - -
19/03:00am 10.4 ESE 5 6 1018.8 - 0.0 - - - - - - -
19/02:30am 10.0 ESE 4 5 1019.0 - 0.0 - - - - - - -
19/02:00am 10.9 SE 5 5 1019.1 - 0.0 - - - - - - -
19/01:30am 10.6 SE 3 3 1019.2 - 0.0 - - - - - - -
19/01:00am 11.2 SE 4 5 1019.3 - 0.0 - - - - - - -
19/12:30am 11.8 SE 5 6 1019.3 - 0.0 - - - - - - -
19/12:00am 13.0 SE 5 6 1019.3 - 0.0 - - - - - - -
 
Date/Time
CDT
Temp

°C
Wind Pressure Rain
since 9am
mm
Weather Cloud Vis
km
Sea
Height
m
Swell
Dir
 
Speed
knots
Gust
knots
hPa Trend Height
m
Period
s
Dir
18/11:30pm 13.8 SE 5 5 1019.2 - 0.0 - - - - - - -
18/11:00pm 14.8 SE 6 7 1019.0 - 0.0 - - - - - - -
18/10:30pm 16.0 S 7 11 1018.8 - 0.0 - - - - - - -
18/10:00pm 15.9 SSW 8 11 1018.5 - 0.0 - - - - - - -
18/09:30pm 16.5 SSW 8 14 1018.2 - 0.0 - - - - - - -
18/09:00pm 16.7 SSW 9 12 1018.0 - 0.0 - - - - - - -
18/08:30pm 16.9 SSW 10 13 1017.9 - 0.0 - - - - - - -
18/08:00pm 17.5 SSW 12 15 1017.7 - 0.0 - - - - - - -
18/07:30pm 18.1 SSW 12 15 1017.2 - 0.0 - - - - - - -
18/07:00pm 18.1 SSW 11 15 1016.8 - 0.0 - - - - - - -
18/06:30pm 18.5 SSW 12 17 1016.4 - 0.0 - - - - - - -
18/06:00pm 19.4 SW 12 15 1016.1 - 0.0 - - - - - - -
18/05:30pm 19.8 SSW 13 16 1015.9 - 0.0 - - - - - - -
18/05:00pm 20.0 SSW 14 18 1015.8 - 0.0 - - - - - - -
18/04:30pm 20.4 SW 14 19 1015.7 - 0.0 - - - - - - -
18/04:00pm 20.4 SW 14 17 1015.5 - 0.0 - - - - - - -
18/03:30pm 20.4 SW 13 16 1015.1 - 0.0 - - - - - - -
18/03:00pm 20.8 SW 14 18 1015.1 - 0.0 - - - - - - -
18/02:30pm 21.0 SW 14 17 1014.9 - 0.0 - - - - - - -
18/02:00pm 21.6 SW 14 17 1015.0 - 0.0 - - - - - - -
18/01:30pm 21.9 SW 14 18 1014.9 - 0.0 - - - - - - -
18/01:00pm 21.0 SW 14 18 1014.8 - 0.0 - - - - - - -
18/12:30pm 21.0 WSW 13 17 1014.7 - 0.0 - - - - - - -
18/12:00pm 20.6 W 14 19 1014.4 - 0.0 - - - - - - -
18/11:30am 20.1 W 12 16 1014.2 - 0.0 - - - - - - -
18/11:00am 20.2 W 11 15 1014.1 - 0.0 - - - - - - -
18/10:30am 19.7 WSW 12 16 1013.8 - 0.0 - - - - - - -
18/10:00am 19.6 WSW 12 17 1013.5 - 0.0 - - - - - - -
18/09:30am 18.8 WSW 11 15 1013.1 - 0.0 - - - - - - -
18/09:00am 18.0 WSW 8 12 1012.7 - 0.0 - - - - - - -
18/08:30am 17.0 SW 10 13 1012.4 - 0.0 - - - - - - -
18/08:00am 18.0 W 10 15 1012.0 - 0.0 - - - - - - -
18/07:30am 17.6 W 11 15 1011.5 - 0.0 - - - - - - -
18/07:00am 16.9 W 10 13 1011.1 - 0.0 - - - - - - -
18/06:30am 16.5 W 10 14 1011.1 - 0.0 - - - - - - -
18/06:00am 16.2 W 10 13 1010.6 - 0.0 - - - - - - -
18/05:30am 15.7 W 7 10 1010.0 - 0.0 - - - - - - -
18/05:00am 16.0 W 8 11 1009.6 - 0.0 - - - - - - -
18/04:30am 15.8 W 7 10 1009.4 - 0.0 - - - - - - -
18/04:00am 16.1 W 9 12 1009.6 - 0.0 - - - - - - -
18/03:30am 16.2 W 9 12 1009.6 - 0.0 - - - - - - -
18/03:00am 16.1 WSW 9 12 1009.4 - 0.0 - - - - - - -

Other Formats:

Comma delimited format used in spreadsheet applications
http://www.bom.gov.au/fwo/IDS60701/IDS60701.94658.axf

JavaScript Object Notation format (JSON) in row-major order
http://www.bom.gov.au/fwo/IDS60701/IDS60701.94658.json